sensor_id;sensor_type;location;lat;lon;timestamp;pressure;altitude;pressure_sealevel;temperature;humidity
70841;BME280;58465;51.534;9.934;2023-02-13T00:00:18;102169.75;;;9.13;74.41
70841;BME280;58465;51.534;9.934;2023-02-13T00:02:44;102165.38;;;9.15;74.33
70841;BME280;58465;51.534;9.934;2023-02-13T00:05:09;102163.63;;;9.17;74.28
70841;BME280;58465;51.534;9.934;2023-02-13T00:07:34;102166.34;;;9.20;74.18
70841;BME280;58465;51.534;9.934;2023-02-13T00:10:00;102169.06;;;9.23;74.29
70841;BME280;58465;51.534;9.934;2023-02-13T00:12:25;102166.41;;;9.25;74.28
70841;BME280;58465;51.534;9.934;2023-02-13T00:14:50;102160.28;;;9.29;74.15
70841;BME280;58465;51.534;9.934;2023-02-13T00:17:16;102156.72;;;9.28;74.23
70841;BME280;58465;51.534;9.934;2023-02-13T00:19:41;102154.97;;;9.30;74.00
70841;BME280;58465;51.534;9.934;2023-02-13T00:22:07;102151.38;;;9.28;74.36
70841;BME280;58465;51.534;9.934;2023-02-13T00:24:34;102159.41;;;9.30;74.05
70841;BME280;58465;51.534;9.934;2023-02-13T00:26:59;102153.09;;;9.26;73.97
70841;BME280;58465;51.534;9.934;2023-02-13T00:29:24;102162.84;;;9.24;74.32
70841;BME280;58465;51.534;9.934;2023-02-13T00:31:49;102164.56;;;9.19;74.40
70841;BME280;58465;51.534;9.934;2023-02-13T00:34:14;102161.78;;;9.15;74.92
70841;BME280;58465;51.534;9.934;2023-02-13T00:36:40;102159.16;;;9.16;74.81
70841;BME280;58465;51.534;9.934;2023-02-13T00:39:05;102161.78;;;9.12;74.91
70841;BME280;58465;51.534;9.934;2023-02-13T00:41:30;102157.34;;;9.12;75.30
70841;BME280;58465;51.534;9.934;2023-02-13T00:43:55;102157.34;;;9.14;74.95
70841;BME280;58465;51.534;9.934;2023-02-13T00:46:21;102162.69;;;9.15;75.04
70841;BME280;58465;51.534;9.934;2023-02-13T00:48:46;102168.94;;;9.16;74.88
70841;BME280;58465;51.534;9.934;2023-02-13T00:51:12;102167.00;;;9.07;75.19
70841;BME280;58465;51.534;9.934;2023-02-13T00:53:37;102164.38;;;9.09;75.05
70841;BME280;58465;51.534;9.934;2023-02-13T00:56:04;102160.78;;;9.07;75.16
70841;BME280;58465;51.534;9.934;2023-02-13T00:58:29;102164.41;;;9.10;74.91
70841;BME280;58465;51.534;9.934;2023-02-13T01:00:55;102166.09;;;9.07;75.25
70841;BME280;58465;51.534;9.934;2023-02-13T01:03:21;102163.44;;;9.07;75.30
70841;BME280;58465;51.534;9.934;2023-02-13T01:05:47;102167.94;;;9.09;75.10
70841;BME280;58465;51.534;9.934;2023-02-13T01:08:13;102171.50;;;9.10;75.09
70841;BME280;58465;51.534;9.934;2023-02-13T01:10:39;102158.13;;;9.08;75.00
70841;BME280;58465;51.534;9.934;2023-02-13T01:13:05;102163.50;;;9.10;74.96
70841;BME280;58465;51.534;9.934;2023-02-13T01:15:31;102163.50;;;9.10;75.20
70841;BME280;58465;51.534;9.934;2023-02-13T01:17:57;102163.50;;;9.10;75.17
70841;BME280;58465;51.534;9.934;2023-02-13T01:20:23;102163.44;;;9.07;75.34
70841;BME280;58465;51.534;9.934;2023-02-13T01:22:49;102160.81;;;9.08;75.33
70841;BME280;58465;51.534;9.934;2023-02-13T01:25:14;102160.78;;;9.07;75.20
70841;BME280;58465;51.534;9.934;2023-02-13T01:27:40;102161.59;;;9.04;75.08
70841;BME280;58465;51.534;9.934;2023-02-13T01:30:06;102158.88;;;9.00;75.41
70841;BME280;58465;51.534;9.934;2023-02-13T01:32:36;102161.50;;;8.98;75.52
70841;BME280;58465;51.534;9.934;2023-02-13T01:35:01;102163.22;;;8.94;75.83
70841;BME280;58465;51.534;9.934;2023-02-13T01:37:27;102160.56;;;8.94;75.83
70841;BME280;58465;51.534;9.934;2023-02-13T01:39:52;102156.97;;;8.94;75.96
70841;BME280;58465;51.534;9.934;2023-02-13T01:42:25;102151.66;;;8.92;75.88
70841;BME280;58465;51.534;9.934;2023-02-13T01:44:58;102150.72;;;8.90;76.12
70841;BME280;58465;51.534;9.934;2023-02-13T01:47:50;102147.94;;;8.84;76.11
70841;BME280;58465;51.534;9.934;2023-02-13T01:53:20;102146.06;;;8.79;76.56
70841;BME280;58465;51.534;9.934;2023-02-13T01:56:00;102143.38;;;8.77;76.99
70841;BME280;58465;51.534;9.934;2023-02-13T01:58:31;102143.41;;;8.79;77.25
70841;BME280;58465;51.534;9.934;2023-02-13T02:00:58;102137.09;;;8.75;77.10
70841;BME280;58465;51.534;9.934;2023-02-13T02:03:33;102138.81;;;8.70;77.35
70841;BME280;58465;51.534;9.934;2023-02-13T02:06:00;102139.56;;;8.63;77.68
70841;BME280;58465;51.534;9.934;2023-02-13T02:08:26;102144.97;;;8.68;77.66
70841;BME280;58465;51.534;9.934;2023-02-13T02:10:53;102136.09;;;8.69;77.59
70841;BME280;58465;51.534;9.934;2023-02-13T02:13:20;102141.38;;;8.66;78.09
70841;BME280;58465;51.534;9.934;2023-02-13T02:19:15;102132.56;;;8.70;77.76
70841;BME280;58465;51.534;9.934;2023-02-13T02:22:15;102126.31;;;8.68;78.27
70841;BME280;58465;51.534;9.934;2023-02-13T02:27:25;102123.47;;;8.59;78.54
70841;BME280;58465;51.534;9.934;2023-02-13T02:35:21;102120.63;;;8.48;78.94
70841;BME280;58465;51.534;9.934;2023-02-13T02:41:19;102119.84;;;8.53;78.89
70841;BME280;58465;51.534;9.934;2023-02-13T02:44:30;102120.06;;;8.66;78.92
70841;BME280;58465;51.534;9.934;2023-02-13T02:49:53;102121.94;;;8.71;78.25
70841;BME280;58465;51.534;9.934;2023-02-13T02:55:05;102121.91;;;8.70;78.05
70841;BME280;58465;51.534;9.934;2023-02-13T02:57:37;102124.44;;;8.62;78.25
70841;BME280;58465;51.534;9.934;2023-02-13T03:00:24;102126.25;;;8.63;78.06
70841;BME280;58465;51.534;9.934;2023-02-13T03:03:15;102127.16;;;8.64;77.93
70841;BME280;58465;51.534;9.934;2023-02-13T03:06:01;102116.44;;;8.61;78.27
70841;BME280;58465;51.534;9.934;2023-02-13T03:08:40;102117.38;;;8.64;78.11
70841;BME280;58465;51.534;9.934;2023-02-13T03:11:25;102119.13;;;8.62;77.88
70841;BME280;58465;51.534;9.934;2023-02-13T03:14:10;102124.38;;;8.59;77.73
70841;BME280;58465;51.534;9.934;2023-02-13T03:16:38;102117.25;;;8.58;77.51
70841;BME280;58465;51.534;9.934;2023-02-13T03:19:28;102119.34;;;8.29;77.94
70841;BME280;58465;51.534;9.934;2023-02-13T03:22:28;102119.06;;;8.17;78.08
70841;BME280;58465;51.534;9.934;2023-02-13T03:31:25;102123.25;;;8.03;77.65
70841;BME280;58465;51.534;9.934;2023-02-13T03:33:59;102122.53;;;8.11;77.41
70841;BME280;58465;51.534;9.934;2023-02-13T03:36:46;102125.22;;;8.13;77.12
70841;BME280;58465;51.534;9.934;2023-02-13T03:39:59;102115.47;;;8.13;77.05
70841;BME280;58465;51.534;9.934;2023-02-13T03:42:34;102117.31;;;8.16;76.80
70841;BME280;58465;51.534;9.934;2023-02-13T03:45:06;102118.66;;;7.96;77.36
70841;BME280;58465;51.534;9.934;2023-02-13T03:47:54;102119.78;;;8.08;76.96
70841;BME280;58465;51.534;9.934;2023-02-13T03:50:20;102117.13;;;8.07;76.54
70841;BME280;58465;51.534;9.934;2023-02-13T03:52:53;102117.31;;;8.16;76.38
70841;BME280;58465;51.534;9.934;2023-02-13T03:55:32;102119.19;;;8.22;76.30
70841;BME280;58465;51.534;9.934;2023-02-13T03:58:24;102127.16;;;8.22;76.36
70841;BME280;58465;51.534;9.934;2023-02-13T04:01:12;102120.28;;;7.89;76.70
70841;BME280;58465;51.534;9.934;2023-02-13T04:03:48;102116.78;;;7.92;76.48
70841;BME280;58465;51.534;9.934;2023-02-13T04:06:18;102123.13;;;7.98;76.42
70841;BME280;58465;51.534;9.934;2023-02-13T04:08:45;102121.34;;;7.97;76.45
70841;BME280;58465;51.534;9.934;2023-02-13T04:11:32;102126.59;;;7.94;76.64
70841;BME280;58465;51.534;9.934;2023-02-13T04:14:03;102129.94;;;7.84;76.73
70841;BME280;58465;51.534;9.934;2023-02-13T04:16:34;102133.53;;;7.86;76.55
70841;BME280;58465;51.534;9.934;2023-02-13T04:19:04;102131.63;;;7.80;76.75
70841;BME280;58465;51.534;9.934;2023-02-13T04:21:37;102137.91;;;7.84;76.88
70841;BME280;58465;51.534;9.934;2023-02-13T04:24:04;102141.09;;;7.68;77.73
70841;BME280;58465;51.534;9.934;2023-02-13T04:26:36;102141.16;;;7.71;77.22
70841;BME280;58465;51.534;9.934;2023-02-13T04:29:02;102137.63;;;7.72;77.11
70841;BME280;58465;51.534;9.934;2023-02-13T04:31:27;102136.69;;;7.70;77.50
70841;BME280;58465;51.534;9.934;2023-02-13T04:33:53;102135.06;;;7.75;77.15
70841;BME280;58465;51.534;9.934;2023-02-13T04:36:18;102128.91;;;7.77;76.89
70841;BME280;58465;51.534;9.934;2023-02-13T04:38:43;102129.53;;;7.66;77.00
70841;BME280;58465;51.534;9.934;2023-02-13T04:41:09;102135.28;;;7.47;77.14
70841;BME280;58465;51.534;9.934;2023-02-13T04:43:35;102133.50;;;7.45;77.00
70841;BME280;58465;51.534;9.934;2023-02-13T04:46:00;102137.78;;;7.39;76.48
70841;BME280;58465;51.534;9.934;2023-02-13T04:48:25;102127.88;;;7.33;76.62
70841;BME280;58465;51.534;9.934;2023-02-13T04:50:51;102132.41;;;7.37;76.26
70841;BME280;58465;51.534;9.934;2023-02-13T04:53:16;102130.75;;;7.42;75.90
70841;BME280;58465;51.534;9.934;2023-02-13T04:55:41;102122.81;;;7.44;75.78
70841;BME280;58465;51.534;9.934;2023-02-13T04:58:07;102123.91;;;7.54;75.37
70841;BME280;58465;51.534;9.934;2023-02-13T05:00:32;102125.44;;;7.42;75.43
70841;BME280;58465;51.534;9.934;2023-02-13T05:03:10;102124.88;;;7.56;75.04
70841;BME280;58465;51.534;9.934;2023-02-13T05:05:37;102122.69;;;7.38;75.33
70841;BME280;58465;51.534;9.934;2023-02-13T05:08:03;102132.28;;;7.33;75.31
70841;BME280;58465;51.534;9.934;2023-02-13T05:10:28;102128.00;;;7.38;75.32
70841;BME280;58465;51.534;9.934;2023-02-13T05:12:54;102131.06;;;7.19;75.69
70841;BME280;58465;51.534;9.934;2023-02-13T05:15:19;102124.81;;;7.17;75.95
70841;BME280;58465;51.534;9.934;2023-02-13T05:17:45;102134.69;;;7.21;75.71
70841;BME280;58465;51.534;9.934;2023-02-13T05:20:12;102133.78;;;7.20;75.71
70841;BME280;58465;51.534;9.934;2023-02-13T05:22:45;102133.56;;;7.11;76.03
70841;BME280;58465;51.534;9.934;2023-02-13T05:25:29;102134.41;;;7.12;75.98
70841;BME280;58465;51.534;9.934;2023-02-13T05:27:54;102134.41;;;7.10;76.11
70841;BME280;58465;51.534;9.934;2023-02-13T05:30:20;102132.78;;;7.17;75.93
70841;BME280;58465;51.534;9.934;2023-02-13T05:32:45;102129.72;;;7.00;75.87
70841;BME280;58465;51.534;9.934;2023-02-13T05:35:10;102136.84;;;7.01;75.99
70841;BME280;58465;51.534;9.934;2023-02-13T05:37:35;102130.53;;;6.97;76.21
70841;BME280;58465;51.534;9.934;2023-02-13T05:40:01;102137.28;;;6.85;76.50
70841;BME280;58465;51.534;9.934;2023-02-13T05:42:26;102134.81;;;6.91;76.47
70841;BME280;58465;51.534;9.934;2023-02-13T05:44:51;102123.97;;;6.83;76.40
70841;BME280;58465;51.534;9.934;2023-02-13T05:47:17;102133.19;;;6.97;76.03
70841;BME280;58465;51.534;9.934;2023-02-13T05:49:42;102140.41;;;7.03;75.91
70841;BME280;58465;51.534;9.934;2023-02-13T05:52:07;102132.09;;;6.89;76.12
70841;BME280;58465;51.534;9.934;2023-02-13T05:54:33;102138.41;;;6.94;76.27
70841;BME280;58465;51.534;9.934;2023-02-13T05:56:58;102136.56;;;6.90;76.34
70841;BME280;58465;51.534;9.934;2023-02-13T05:59:23;102135.72;;;6.91;76.42
70841;BME280;58465;51.534;9.934;2023-02-13T06:01:48;102138.41;;;6.94;76.25
70841;BME280;58465;51.534;9.934;2023-02-13T06:04:14;102140.41;;;7.03;76.07
70841;BME280;58465;51.534;9.934;2023-02-13T06:06:39;102139.44;;;6.99;75.82
70841;BME280;58465;51.534;9.934;2023-02-13T06:09:04;102139.56;;;7.04;75.69
70841;BME280;58465;51.534;9.934;2023-02-13T06:11:30;102142.13;;;6.99;75.64
70841;BME280;58465;51.534;9.934;2023-02-13T06:13:55;102139.41;;;6.98;75.52
70841;BME280;58465;51.534;9.934;2023-02-13T06:16:20;102144.81;;;7.01;75.20
70841;BME280;58465;51.534;9.934;2023-02-13T06:18:46;102144.88;;;7.04;75.01
70841;BME280;58465;51.534;9.934;2023-02-13T06:21:12;102152.66;;;6.96;75.29
70841;BME280;58465;51.534;9.934;2023-02-13T06:23:37;102157.88;;;6.92;75.35
70841;BME280;58465;51.534;9.934;2023-02-13T06:26:06;102154.50;;;6.99;74.90
70841;BME280;58465;51.534;9.934;2023-02-13T06:28:32;102159.06;;;7.04;74.76
70841;BME280;58465;51.534;9.934;2023-02-13T06:30:58;102165.31;;;7.06;74.48
70841;BME280;58465;51.534;9.934;2023-02-13T06:33:23;102168.09;;;7.13;74.27
70841;BME280;58465;51.534;9.934;2023-02-13T06:35:49;102171.63;;;7.10;74.49
70841;BME280;58465;51.534;9.934;2023-02-13T06:38:14;102169.06;;;7.15;74.12
70841;BME280;58465;51.534;9.934;2023-02-13T06:40:43;102162.06;;;7.18;73.92
70841;BME280;58465;51.534;9.934;2023-02-13T06:43:08;102162.78;;;7.13;74.66
70841;BME280;58465;51.534;9.934;2023-02-13T06:45:33;102166.31;;;7.12;74.11
70841;BME280;58465;51.534;9.934;2023-02-13T06:47:58;102172.63;;;7.15;74.12
70841;BME280;58465;51.534;9.934;2023-02-13T06:50:24;102172.94;;;7.27;74.07
70841;BME280;58465;51.534;9.934;2023-02-13T06:52:50;102175.63;;;7.29;74.15
70841;BME280;58465;51.534;9.934;2023-02-13T06:55:16;102180.09;;;7.30;74.01
70841;BME280;58465;51.534;9.934;2023-02-13T06:57:42;102174.41;;;7.16;73.97
70841;BME280;58465;51.534;9.934;2023-02-13T07:00:09;102180.69;;;7.18;74.06
70841;BME280;58465;51.534;9.934;2023-02-13T07:02:37;102179.41;;;7.04;74.64
70841;BME280;58465;51.534;9.934;2023-02-13T07:05:03;102183.25;;;7.15;74.23
70841;BME280;58465;51.534;9.934;2023-02-13T07:07:32;102187.84;;;7.21;74.02
70841;BME280;58465;51.534;9.934;2023-02-13T07:09:57;102194.25;;;7.29;73.93
70841;BME280;58465;51.534;9.934;2023-02-13T07:12:23;102198.66;;;7.28;73.87
70841;BME280;58465;51.534;9.934;2023-02-13T07:14:48;102190.72;;;7.30;74.18
70841;BME280;58465;51.534;9.934;2023-02-13T07:17:13;102189.72;;;7.26;74.38
70841;BME280;58465;51.534;9.934;2023-02-13T07:19:41;102199.59;;;7.30;74.20
70841;BME280;58465;51.534;9.934;2023-02-13T07:22:07;102191.50;;;7.26;74.29
70841;BME280;58465;51.534;9.934;2023-02-13T07:24:32;102193.22;;;7.24;74.26
70841;BME280;58465;51.534;9.934;2023-02-13T07:26:59;102191.44;;;7.24;74.24
70841;BME280;58465;51.534;9.934;2023-02-13T07:29:24;102190.72;;;7.31;74.35
70841;BME280;58465;51.534;9.934;2023-02-13T07:31:50;102189.25;;;7.42;74.33
70841;BME280;58465;51.534;9.934;2023-02-13T07:34:15;102190.97;;;7.40;74.01
70841;BME280;58465;51.534;9.934;2023-02-13T07:36:40;102194.44;;;7.36;74.08
70841;BME280;58465;51.534;9.934;2023-02-13T07:39:06;102197.84;;;7.32;74.28
70841;BME280;58465;51.534;9.934;2023-02-13T07:41:31;102190.50;;;7.22;74.23
70841;BME280;58465;51.534;9.934;2023-02-13T07:43:56;102193.84;;;7.48;73.87
70841;BME280;58465;51.534;9.934;2023-02-13T07:46:21;102192.84;;;7.44;73.87
70841;BME280;58465;51.534;9.934;2023-02-13T07:48:47;102199.28;;;7.54;74.06
70841;BME280;58465;51.534;9.934;2023-02-13T07:51:12;102197.66;;;7.61;73.73
70841;BME280;58465;51.534;9.934;2023-02-13T07:53:37;102192.28;;;7.58;73.75
70841;BME280;58465;51.534;9.934;2023-02-13T07:56:07;102188.78;;;7.60;73.43
70841;BME280;58465;51.534;9.934;2023-02-13T07:58:33;102190.53;;;7.60;73.44
70841;BME280;58465;51.534;9.934;2023-02-13T08:01:04;102186.97;;;7.58;73.16
70841;BME280;58465;51.534;9.934;2023-02-13T08:03:30;102194.31;;;7.69;73.21
70841;BME280;58465;51.534;9.934;2023-02-13T08:05:55;102190.78;;;7.70;73.03
70841;BME280;58465;51.534;9.934;2023-02-13T08:08:20;102191.66;;;7.68;72.93
70841;BME280;58465;51.534;9.934;2023-02-13T08:10:46;102191.94;;;7.81;72.82
70841;BME280;58465;51.534;9.934;2023-02-13T08:13:29;102185.84;;;7.86;72.67
70841;BME280;58465;51.534;9.934;2023-02-13T08:15:56;102192.06;;;7.86;72.27
70841;BME280;58465;51.534;9.934;2023-02-13T08:18:21;102193.13;;;7.94;72.28
70841;BME280;58465;51.534;9.934;2023-02-13T08:20:46;102194.97;;;7.98;71.82
70841;BME280;58465;51.534;9.934;2023-02-13T08:23:12;102195.78;;;7.94;72.09
70841;BME280;58465;51.534;9.934;2023-02-13T08:25:37;102195.09;;;8.03;71.86
70841;BME280;58465;51.534;9.934;2023-02-13T08:28:03;102193.41;;;8.08;72.34
70841;BME280;58465;51.534;9.934;2023-02-13T08:30:29;102190.88;;;8.12;72.15
70841;BME280;58465;51.534;9.934;2023-02-13T08:32:54;102195.56;;;8.24;71.72
70841;BME280;58465;51.534;9.934;2023-02-13T08:35:20;102189.53;;;8.31;71.58
70841;BME280;58465;51.534;9.934;2023-02-13T08:37:46;102192.31;;;8.37;71.11
70841;BME280;58465;51.534;9.934;2023-02-13T08:40:12;102194.22;;;8.43;70.54
70841;BME280;58465;51.534;9.934;2023-02-13T08:42:37;102195.06;;;8.42;70.88
70841;BME280;58465;51.534;9.934;2023-02-13T08:45:03;102196.13;;;8.50;70.88
70841;BME280;58465;51.534;9.934;2023-02-13T08:47:29;102193.47;;;8.50;70.89
70841;BME280;58465;51.534;9.934;2023-02-13T08:49:55;102188.38;;;8.62;70.78
70841;BME280;58465;51.534;9.934;2023-02-13T08:52:20;102188.50;;;8.68;70.50
70841;BME280;58465;51.534;9.934;2023-02-13T08:54:45;102186.69;;;8.67;70.49
70841;BME280;58465;51.534;9.934;2023-02-13T08:57:10;102194.53;;;8.60;70.70
70841;BME280;58465;51.534;9.934;2023-02-13T08:59:36;102186.56;;;8.60;70.58
70841;BME280;58465;51.534;9.934;2023-02-13T09:02:01;102189.47;;;8.72;70.25
70841;BME280;58465;51.534;9.934;2023-02-13T09:04:27;102195.88;;;8.81;70.20
70841;BME280;58465;51.534;9.934;2023-02-13T09:06:52;102192.38;;;8.85;70.00
70841;BME280;58465;51.534;9.934;2023-02-13T09:09:18;102189.84;;;8.91;69.88
70841;BME280;58465;51.534;9.934;2023-02-13T09:11:43;102194.34;;;8.96;69.54
70841;BME280;58465;51.534;9.934;2023-02-13T09:14:09;102186.38;;;8.97;69.46
70841;BME280;58465;51.534;9.934;2023-02-13T09:16:34;102191.69;;;8.97;69.25
70841;BME280;58465;51.534;9.934;2023-02-13T09:19:00;102196.25;;;9.03;69.25
70841;BME280;58465;51.534;9.934;2023-02-13T09:21:25;102186.47;;;9.02;69.29
70841;BME280;58465;51.534;9.934;2023-02-13T09:23:50;102189.81;;;8.90;69.26
70841;BME280;58465;51.534;9.934;2023-02-13T09:26:18;102183.56;;;8.89;69.50
70841;BME280;58465;51.534;9.934;2023-02-13T09:28:43;102190.00;;;9.01;69.51
70841;BME280;58465;51.534;9.934;2023-02-13T09:31:11;102187.56;;;9.13;69.24
70841;BME280;58465;51.534;9.934;2023-02-13T09:33:39;102188.97;;;9.45;68.04
70841;BME280;58465;51.534;9.934;2023-02-13T09:36:11;102193.88;;;9.74;67.37
70841;BME280;58465;51.534;9.934;2023-02-13T09:38:37;102195.69;;;9.76;66.85
70841;BME280;58465;51.534;9.934;2023-02-13T09:41:06;102189.38;;;9.71;66.57
70841;BME280;58465;51.534;9.934;2023-02-13T09:43:38;102190.75;;;9.45;66.88
70841;BME280;58465;51.534;9.934;2023-02-13T09:46:11;102199.75;;;9.53;66.97
70841;BME280;58465;51.534;9.934;2023-02-13T09:48:40;102203.97;;;9.37;67.21
70841;BME280;58465;51.534;9.934;2023-02-13T09:51:13;102210.09;;;9.32;67.94
70841;BME280;58465;51.534;9.934;2023-02-13T09:53:39;102205.00;;;9.47;67.75
70841;BME280;58465;51.534;9.934;2023-02-13T09:56:21;102204.78;;;9.33;68.16
70841;BME280;58465;51.534;9.934;2023-02-13T09:58:56;102199.25;;;9.21;68.37
70841;BME280;58465;51.534;9.934;2023-02-13T10:01:34;102201.53;;;9.51;67.95
70841;BME280;58465;51.534;9.934;2023-02-13T10:04:16;102199.00;;;9.60;67.70
70841;BME280;58465;51.534;9.934;2023-02-13T10:06:50;102192.84;;;9.65;67.18
70841;BME280;58465;51.534;9.934;2023-02-13T10:18:37;102202.06;;;9.86;66.44
70841;BME280;58465;51.534;9.934;2023-02-13T10:21:06;102208.41;;;9.94;66.19
70841;BME280;58465;51.534;9.934;2023-02-13T10:26:19;102202.16;;;9.92;65.83
70841;BME280;58465;51.534;9.934;2023-02-13T10:28:58;102193.44;;;10.05;65.71
70841;BME280;58465;51.534;9.934;2023-02-13T10:31:44;102191.81;;;10.16;64.66
70841;BME280;58465;51.534;9.934;2023-02-13T10:34:14;102196.84;;;9.95;64.74
70841;BME280;58465;51.534;9.934;2023-02-13T10:36:44;102196.81;;;9.92;64.77
70841;BME280;58465;51.534;9.934;2023-02-13T10:39:27;102190.78;;;10.05;64.88
70841;BME280;58465;51.534;9.934;2023-02-13T10:42:06;102187.25;;;10.08;64.93
70841;BME280;58465;51.534;9.934;2023-02-13T10:45:24;102184.22;;;10.48;64.51
70841;BME280;58465;51.534;9.934;2023-02-13T10:47:46;102187.31;;;10.83;63.31
70841;BME280;58465;51.534;9.934;2023-02-13T10:50:35;102185.72;;;11.02;61.96
70841;BME280;58465;51.534;9.934;2023-02-13T10:53:32;102174.25;;;11.16;61.79
70841;BME280;58465;51.534;9.934;2023-02-13T10:56:26;102170.06;;;11.47;60.75
70841;BME280;58465;51.534;9.934;2023-02-13T11:01:54;102174.63;;;11.61;59.97
70841;BME280;58465;51.534;9.934;2023-02-13T11:04:20;102171.00;;;11.57;59.50
70841;BME280;58465;51.534;9.934;2023-02-13T11:07:00;102154.84;;;11.45;60.07
70841;BME280;58465;51.534;9.934;2023-02-13T11:09:27;102154.00;;;11.49;60.32
70841;BME280;58465;51.534;9.934;2023-02-13T11:11:54;102156.75;;;11.58;60.13
70841;BME280;58465;51.534;9.934;2023-02-13T11:14:21;102148.94;;;11.93;59.96
70841;BME280;58465;51.534;9.934;2023-02-13T11:19:21;102139.38;;;12.48;58.18
70841;BME280;58465;51.534;9.934;2023-02-13T11:21:53;102133.03;;;12.23;57.49
70841;BME280;58465;51.534;9.934;2023-02-13T11:24:24;102137.38;;;12.02;58.11
70841;BME280;58465;51.534;9.934;2023-02-13T11:27:02;102133.88;;;12.09;58.38
70841;BME280;58465;51.534;9.934;2023-02-13T11:29:34;102147.88;;;11.67;59.05
70841;BME280;58465;51.534;9.934;2023-02-13T11:32:03;102147.78;;;11.50;59.92
70841;BME280;58465;51.534;9.934;2023-02-13T11:34:30;102139.63;;;11.35;60.08
70841;BME280;58465;51.534;9.934;2023-02-13T11:39:36;102139.59;;;11.29;60.38
70841;BME280;58465;51.534;9.934;2023-02-13T11:42:02;102137.91;;;11.44;59.99
70841;BME280;58465;51.534;9.934;2023-02-13T11:44:30;102138.03;;;11.64;59.58
70841;BME280;58465;51.534;9.934;2023-02-13T11:46:58;102130.91;;;11.62;59.01
70841;BME280;58465;51.534;9.934;2023-02-13T11:49:28;102130.22;;;11.90;58.61
70841;BME280;58465;51.534;9.934;2023-02-13T11:52:02;102126.84;;;12.37;57.78
70841;BME280;58465;51.534;9.934;2023-02-13T11:54:29;102127.88;;;13.21;56.30
70841;BME280;58465;51.534;9.934;2023-02-13T11:59:26;102120.00;;;15.01;51.95
70841;BME280;58465;51.534;9.934;2023-02-13T12:02:02;102125.78;;;15.61;49.64
70841;BME280;58465;51.534;9.934;2023-02-13T12:04:28;102121.78;;;16.68;47.66
70841;BME280;58465;51.534;9.934;2023-02-13T12:07:02;102127.44;;;17.09;46.01
70841;BME280;58465;51.534;9.934;2023-02-13T12:09:31;102118.19;;;17.23;46.01
70841;BME280;58465;51.534;9.934;2023-02-13T12:11:59;102110.63;;;16.91;45.92
70841;BME280;58465;51.534;9.934;2023-02-13T12:14:31;102112.97;;;16.53;46.52
70841;BME280;58465;51.534;9.934;2023-02-13T12:17:05;102099.50;;;15.84;47.46
70841;BME280;58465;51.534;9.934;2023-02-13T12:19:39;102091.94;;;15.29;49.17
70841;BME280;58465;51.534;9.934;2023-02-13T12:22:19;102088.50;;;15.15;50.19
70841;BME280;58465;51.534;9.934;2023-02-13T12:32:41;102070.91;;;15.69;48.06
70841;BME280;58465;51.534;9.934;2023-02-13T12:35:33;102069.75;;;15.91;48.08
70841;BME280;58465;51.534;9.934;2023-02-13T12:40:54;102064.34;;;15.93;47.53
70841;BME280;58465;51.534;9.934;2023-02-13T12:43:39;102062.91;;;15.63;48.28
70841;BME280;58465;51.534;9.934;2023-02-13T12:46:21;102054.06;;;14.46;50.34
70841;BME280;58465;51.534;9.934;2023-02-13T12:49:04;102052.59;;;13.80;51.91
70841;BME280;58465;51.534;9.934;2023-02-13T12:57:17;102051.69;;;12.02;57.57
70841;BME280;58465;51.534;9.934;2023-02-13T13:02:50;102047.94;;;11.62;58.67
70841;BME280;58465;51.534;9.934;2023-02-13T13:08:26;102034.38;;;11.30;60.09
70841;BME280;58465;51.534;9.934;2023-02-13T13:11:22;102024.56;;;11.32;60.48
70841;BME280;58465;51.534;9.934;2023-02-13T13:16:43;102022.78;;;11.31;59.96
70841;BME280;58465;51.534;9.934;2023-02-13T13:19:34;102019.19;;;11.24;61.02
70841;BME280;58465;51.534;9.934;2023-02-13T13:22:37;102020.91;;;11.18;61.21
70841;BME280;58465;51.534;9.934;2023-02-13T13:25:30;102019.13;;;11.13;61.47
70841;BME280;58465;51.534;9.934;2023-02-13T13:28:03;102018.16;;;11.04;61.80
70841;BME280;58465;51.534;9.934;2023-02-13T13:30:33;102018.16;;;11.08;61.99
70841;BME280;58465;51.534;9.934;2023-02-13T13:33:15;102018.16;;;11.04;62.14
70841;BME280;58465;51.534;9.934;2023-02-13T13:35:58;102012.78;;;11.05;62.02
70841;BME280;58465;51.534;9.934;2023-02-13T13:41:16;102013.75;;;11.12;61.53
70841;BME280;58465;51.534;9.934;2023-02-13T13:44:03;102018.22;;;11.13;61.95
70841;BME280;58465;51.534;9.934;2023-02-13T13:46:45;102007.47;;;11.10;61.61
70841;BME280;58465;51.534;9.934;2023-02-13T13:51:45;102004.84;;;11.13;62.11
70841;BME280;58465;51.534;9.934;2023-02-13T14:07:41;102009.25;;;11.08;62.83
70841;BME280;58465;51.534;9.934;2023-02-13T14:12:59;102002.06;;;10.99;62.96
70841;BME280;58465;51.534;9.934;2023-02-13T14:17:58;101997.63;;;11.00;63.31
70841;BME280;58465;51.534;9.934;2023-02-13T14:20:35;101993.13;;;10.94;63.37
70841;BME280;58465;51.534;9.934;2023-02-13T14:25:45;101996.69;;;10.98;63.58
70841;BME280;58465;51.534;9.934;2023-02-13T14:28:24;101992.28;;;11.01;63.57
70841;BME280;58465;51.534;9.934;2023-02-13T14:31:03;101992.28;;;11.03;63.21
70841;BME280;58465;51.534;9.934;2023-02-13T14:33:31;101986.88;;;10.97;63.73
70841;BME280;58465;51.534;9.934;2023-02-13T14:36:16;101986.81;;;10.86;64.40
70841;BME280;58465;51.534;9.934;2023-02-13T14:38:54;101984.16;;;10.89;64.18
70841;BME280;58465;51.534;9.934;2023-02-13T14:41:42;101978.00;;;10.99;63.79
70841;BME280;58465;51.534;9.934;2023-02-13T14:44:38;101980.59;;;10.86;64.45
70841;BME280;58465;51.534;9.934;2023-02-13T14:47:27;101978.78;;;10.83;64.62
70841;BME280;58465;51.534;9.934;2023-02-13T14:49:55;101974.28;;;10.79;64.86
70841;BME280;58465;51.534;9.934;2023-02-13T14:52:24;101977.88;;;10.83;64.78
70841;BME280;58465;51.534;9.934;2023-02-13T14:55:00;101976.09;;;10.80;64.75
70841;BME280;58465;51.534;9.934;2023-02-13T14:57:33;101980.53;;;10.81;64.62
70841;BME280;58465;51.534;9.934;2023-02-13T15:00:19;101978.72;;;10.72;65.21